Time;durP1;ratioP1;P1;durP2;ratioP2;P2;SDS_P1;SDS_P2;PMS_P1;PMS_P2;Temp;Humidity;BMP_temperature;BMP_pressure;BME280_temperature;BME280_humidity;BME280_pressure;Samples;Min_cycle;Max_cycle;Signal;HPM_P1;HPM_P2
2021/04/28 00:01:46;;;;;;;12.00;5.83;;;11.20;50.80;;;;;;5053635;28;20028;-86
2021/04/28 00:04:12;;;;;;;7.83;4.37;;;11.20;50.80;;;;;;5071647;28;20028;-86
2021/04/28 00:06:38;;;;;;;12.63;4.90;;;11.00;50.80;;;;;;5071614;28;20031;-86
2021/04/28 00:09:05;;;;;;;9.50;4.93;;;11.10;51.10;;;;;;5071126;28;20032;-86
2021/04/28 00:11:35;;;;;;;10.00;5.43;;;11.10;50.90;;;;;;5053461;28;20025;-86
2021/04/28 00:14:01;;;;;;;;;;;11.00;51.20;;;;;;5071824;28;20563;-86
2021/04/28 00:16:27;;;;;;;7.93;4.90;;;11.00;51.40;;;;;;5071537;28;19991;-86
2021/04/28 00:18:52;;;;;;;9.40;4.87;;;10.90;51.50;;;;;;5053077;28;20120;-87
2021/04/28 00:21:19;;;;;;;8.07;4.43;;;10.90;51.70;;;;;;5053376;28;20107;-87
2021/04/28 00:23:45;;;;;;;9.17;5.20;;;10.80;52.00;;;;;;5053428;28;20113;-86
2021/04/28 00:26:15;;;;;;;10.47;4.97;;;10.70;52.20;;;;;;5071283;28;20439;-87
2021/04/28 00:28:40;;;;;;;9.30;4.87;;;10.70;52.20;;;;;;5073874;28;20027;-86
2021/04/28 00:31:06;;;;;;;10.00;5.20;;;10.60;52.80;;;;;;5074454;28;20096;-85
2021/04/28 00:33:32;;;;;;;10.50;5.20;;;10.50;52.90;;;;;;5057013;28;20029;-87
2021/04/28 00:35:58;;;;;;;8.50;4.60;;;10.50;52.90;;;;;;5056973;28;20096;-86
2021/04/28 00:38:23;;;;;;;10.27;5.67;;;10.50;53.30;;;;;;5056874;28;20119;-87
2021/04/28 00:40:49;;;;;;;10.90;5.30;;;10.50;53.30;;;;;;5074279;28;20021;-87
2021/04/28 00:43:15;;;;;;;11.10;5.70;;;10.40;53.70;;;;;;5056718;28;20052;-87
2021/04/28 00:45:43;;;;;;;8.63;4.87;;;10.30;53.90;;;;;;5074757;28;20370;-86
2021/04/28 00:48:10;;;;;;;10.27;5.13;;;10.30;54.30;;;;;;5056723;28;20020;-87
2021/04/28 00:50:38;;;;;;;9.40;5.40;;;10.40;54.10;;;;;;5074345;28;20054;-87
2021/04/28 00:53:05;;;;;;;9.15;5.15;;;10.30;54.10;;;;;;5056719;28;20025;-86
2021/04/28 00:55:32;;;;;;;8.00;4.67;;;10.40;53.90;;;;;;5056529;28;20119;-87
2021/04/28 00:57:58;;;;;;;10.77;4.77;;;10.40;54.00;;;;;;5056612;28;20020;-86
2021/04/28 01:00:25;;;;;;;10.10;5.53;;;10.40;54.00;;;;;;5056026;28;20397;-87
2021/04/28 01:02:51;;;;;;;10.73;5.30;;;10.40;54.20;;;;;;5056372;28;20017;-86
2021/04/28 01:05:17;;;;;;;9.13;4.87;;;10.30;54.40;;;;;;5056721;28;20025;-86
2021/04/28 01:07:45;;;;;;;11.47;5.50;;;10.30;54.50;;;;;;5074411;28;20029;-87
2021/04/28 01:10:16;;;;;;;8.23;4.97;;;10.20;54.70;;;;;;5055784;28;20424;-86
2021/04/28 01:12:41;;;;;;;8.47;5.23;;;10.20;54.80;;;;;;5074271;28;20031;-86
2021/04/28 01:15:11;;;;;;;11.27;5.40;;;10.10;54.90;;;;;;5074157;28;20388;-86
2021/04/28 01:17:38;;;;;;;8.57;5.30;;;10.10;55.00;;;;;;5056226;28;20027;-86
2021/04/28 01:20:07;;;;;;;13.67;5.27;;;10.10;55.00;;;;;;5055756;28;20024;-86
2021/04/28 01:22:43;;;;;;;8.90;5.20;;;10.10;54.90;;;;;;5055981;28;20021;-86
2021/04/28 01:25:12;;;;;;;9.70;5.30;;;10.10;55.00;;;;;;5074071;28;20040;-86
2021/04/28 01:27:40;;;;;;;11.45;5.35;;;10.00;55.30;;;;;;5056248;28;20029;-86
2021/04/28 01:30:07;;;;;;;13.20;5.63;;;10.10;55.10;;;;;;5073459;28;20123;-87
2021/04/28 01:32:35;;;;;;;8.50;6.07;;;10.10;55.20;;;;;;5073671;28;20025;-86
2021/04/28 01:35:01;;;;;;;8.63;5.13;;;10.10;55.20;;;;;;5055780;28;20029;-86
2021/04/28 01:37:29;;;;;;;12.17;5.70;;;10.00;55.30;;;;;;5056056;28;20025;-87
2021/04/28 01:39:56;;;;;;;10.77;5.40;;;10.00;56.10;;;;;;5055067;28;20071;-87
2021/04/28 01:42:23;;;;;;;8.93;5.50;;;9.90;55.70;;;;;;5055741;28;20042;-86
2021/04/28 01:44:50;;;;;;;8.70;4.97;;;10.00;56.30;;;;;;5106930;23;20043;-86
2021/04/28 01:47:19;;;;;;;10.37;5.37;;;9.80;55.80;;;;;;5114292;28;20019;-86
2021/04/28 01:49:46;;;;;;;12.40;5.65;;;9.90;55.80;;;;;;5113806;28;20075;-86
2021/04/28 01:52:12;;;;;;;9.67;5.50;;;9.90;55.90;;;;;;5095926;28;20391;-86
2021/04/28 01:54:38;;;;;;;9.90;5.17;;;9.80;56.30;;;;;;5095802;28;20063;-86
2021/04/28 01:57:05;;;;;;;7.13;5.03;;;9.90;56.20;;;;;;5096137;28;20047;-86
2021/04/28 01:59:32;;;;;;;11.67;5.37;;;9.80;56.20;;;;;;5113459;28;20075;-86
2021/04/28 02:01:59;;;;;;;9.93;5.37;;;9.90;56.40;;;;;;5095738;28;20075;-87
2021/04/28 02:04:25;;;;;;;9.40;5.30;;;9.90;56.80;;;;;;5095819;28;20023;-86
2021/04/28 02:06:52;;;;;;;12.23;5.57;;;9.90;56.20;;;;;;5114394;28;20484;-86
2021/04/28 02:09:18;;;;;;;9.07;5.20;;;9.90;56.30;;;;;;5095077;28;20080;-85
2021/04/28 02:11:44;;;;;;;9.33;5.27;;;9.90;56.50;;;;;;5095626;28;20027;-85
2021/04/28 02:14:15;;;;;;;12.37;5.47;;;9.80;56.60;;;;;;5095323;28;20020;-86
2021/04/28 02:16:43;;;;;;;12.50;5.63;;;9.70;56.80;;;;;;5095567;28;20052;-86
2021/04/28 02:19:11;;;;;;;13.03;5.97;;;9.70;57.60;;;;;;5113142;28;20026;-86
2021/04/28 02:21:45;;;;;;;12.97;6.27;;;9.60;57.00;;;;;;5095410;28;20028;-85
2021/04/28 02:24:14;;;;;;;13.33;5.90;;;9.70;57.10;;;;;;5113670;28;20076;-85
2021/04/28 02:26:41;;;;;;;12.95;5.50;;;9.60;57.20;;;;;;5095521;28;20023;-86
2021/04/28 02:29:07;;;;;;;10.23;5.53;;;9.60;57.40;;;;;;5112734;28;20562;-86
2021/04/28 02:31:33;;;;;;;10.63;5.83;;;9.60;57.40;;;;;;5095196;28;20023;-86
2021/04/28 02:34:01;;;;;;;9.00;5.83;;;9.60;57.70;;;;;;5112637;28;20073;-86
2021/04/28 02:36:28;;;;;;;10.57;6.07;;;9.50;57.80;;;;;;5094347;28;20023;-86
2021/04/28 02:39:04;;;;;;;15.57;6.40;;;9.50;58.00;;;;;;5094496;28;20091;-86
2021/04/28 02:41:30;;;;;;;11.70;5.67;;;9.40;58.30;;;;;;5113343;28;20468;-87
2021/04/28 02:43:57;;;;;;;14.43;6.30;;;9.40;58.60;;;;;;5094931;28;20026;-86
2021/04/28 02:46:25;;;;;;;10.67;5.70;;;9.30;58.70;;;;;;5095002;28;20031;-85
2021/04/28 02:48:51;;;;;;;10.50;6.17;;;9.30;58.90;;;;;;5112962;28;20035;-84
2021/04/28 02:51:17;;;;;;;15.90;7.20;;;9.30;59.00;;;;;;5112283;28;20032;-86
2021/04/28 02:53:44;;;;;;;10.57;5.97;;;9.30;59.20;;;;;;5095057;28;20051;-85
2021/04/28 02:56:13;;;;;;;9.13;6.03;;;9.20;59.30;;;;;;5094859;28;20055;-86
2021/04/28 02:58:40;;;;;;;12.00;5.82;;;9.20;59.40;;;;;;5113228;28;20076;-86
2021/04/28 03:01:07;;;;;;;12.03;5.90;;;9.20;59.50;;;;;;5094284;28;20027;-86
2021/04/28 03:03:33;;;;;;;10.90;5.70;;;9.10;59.80;;;;;;5094752;28;20019;-86
2021/04/28 03:05:59;;;;;;;14.63;6.60;;;9.10;59.60;;;;;;5094957;28;20137;-87
2021/04/28 03:08:25;;;;;;;10.93;6.20;;;9.10;59.70;;;;;;5112800;28;20491;-86
2021/04/28 03:10:52;;;;;;;13.30;6.50;;;9.10;59.80;;;;;;5094027;28;20122;-86
2021/04/28 03:13:18;;;;;;;10.67;5.97;;;9.10;60.00;;;;;;5094337;28;20024;-86
2021/04/28 03:15:50;;;;;;;10.33;6.27;;;9.10;60.10;;;;;;5094536;28;20019;-86
2021/04/28 03:18:16;;;;;;;11.70;5.90;;;9.10;60.30;;;;;;5094821;28;20038;-85
2021/04/28 03:20:46;;;;;;;10.27;6.10;;;9.00;60.50;;;;;;5094066;28;20019;-86
2021/04/28 03:23:14;;;;;;;11.33;6.50;;;9.10;60.60;;;;;;5112560;28;20099;-86
2021/04/28 03:25:41;;;;;;;11.50;5.97;;;9.00;60.50;;;;;;5094338;28;20027;-86
2021/04/28 03:28:07;;;;;;;10.90;5.93;;;9.10;60.90;;;;;;5094454;28;20069;-86
2021/04/28 03:30:33;;;;;;;12.80;6.70;;;9.00;61.10;;;;;;5093857;28;20028;-86
2021/04/28 03:32:59;;;;;;;13.50;6.30;;;8.90;61.30;;;;;;5112270;28;20392;-85
2021/04/28 03:35:24;;;;;;;15.63;6.70;;;8.90;61.50;;;;;;5112433;28;20100;-86
2021/04/28 03:37:50;;;;;;;14.23;6.60;;;8.80;61.80;;;;;;5094261;28;20518;-86
2021/04/28 03:40:16;;;;;;;13.40;6.47;;;8.80;62.00;;;;;;5093853;28;20070;-85
2021/04/28 03:42:41;;;;;;;11.30;6.57;;;8.70;62.20;;;;;;5094152;28;20425;-87
2021/04/28 03:45:08;;;;;;;12.43;6.67;;;8.60;62.60;;;;;;5112298;28;20028;-87
2021/04/28 03:47:33;;;;;;;12.20;6.23;;;8.60;62.70;;;;;;5112311;28;20027;-86
2021/04/28 03:49:59;;;;;;;13.70;6.37;;;8.60;62.40;;;;;;5111891;28;20026;-85
2021/04/28 03:52:25;;;;;;;14.83;6.57;;;8.60;62.50;;;;;;5094017;28;20032;-86
2021/04/28 03:54:51;;;;;;;12.43;6.63;;;8.60;62.80;;;;;;5112273;28;20051;-87
2021/04/28 03:57:17;;;;;;;14.73;7.23;;;8.60;62.70;;;;;;5094047;28;20016;-86
2021/04/28 03:59:43;;;;;;;12.77;6.43;;;8.50;63.00;;;;;;5093550;28;20492;-85
2021/04/28 04:02:08;;;;;;;12.83;6.77;;;8.60;63.10;;;;;;5095870;28;20016;-85
2021/04/28 04:04:34;;;;;;;11.93;6.03;;;8.80;63.50;;;;;;5116281;28;20400;-87
2021/04/28 04:07:00;;;;;;;12.57;6.73;;;8.60;62.70;;;;;;5116470;28;20077;-86
2021/04/28 04:09:27;;;;;;;13.43;7.10;;;8.60;62.90;;;;;;5116085;28;20034;-86
2021/04/28 04:11:52;;;;;;;14.80;6.40;;;8.60;63.10;;;;;;5097811;28;20019;-86
2021/04/28 04:14:18;;;;;;;14.77;6.50;;;8.60;63.20;;;;;;5097989;28;20407;-86
2021/04/28 04:16:44;;;;;;;13.47;6.70;;;8.60;63.80;;;;;;5116260;28;20472;-86
2021/04/28 04:19:10;;;;;;;16.60;6.63;;;8.70;64.00;;;;;;5115561;28;20032;-86
2021/04/28 04:21:36;;;;;;;11.17;7.03;;;8.70;63.30;;;;;;5097666;28;20032;-86
2021/04/28 04:24:02;;;;;;;13.70;6.80;;;8.70;63.10;;;;;;5097836;28;20382;-86
2021/04/28 04:26:27;;;;;;;11.33;6.03;;;8.60;63.30;;;;;;5097738;28;20023;-86
2021/04/28 04:28:53;;;;;;;12.50;6.43;;;8.60;63.50;;;;;;5097404;28;20062;-82
2021/04/28 04:31:19;;;;;;;11.87;6.60;;;8.70;63.50;;;;;;5097859;28;20396;-86
2021/04/28 04:33:44;;;;;;;15.07;6.73;;;8.60;64.10;;;;;;5115783;28;20384;-86
2021/04/28 04:36:10;;;;;;;13.50;6.70;;;8.60;64.00;;;;;;5115615;28;20039;-86
2021/04/28 04:38:36;;;;;;;14.47;7.30;;;8.60;64.00;;;;;;5116186;28;20024;-86
2021/04/28 04:41:01;;;;;;;11.63;6.60;;;8.60;64.20;;;;;;5115357;28;20035;-85
2021/04/28 04:43:27;;;;;;;14.17;6.43;;;8.50;64.60;;;;;;5116622;28;20027;-86
2021/04/28 04:45:52;;;;;;;12.17;6.53;;;8.60;64.70;;;;;;5116587;28;20027;-86
2021/04/28 04:48:18;;;;;;;11.80;6.50;;;8.40;64.70;;;;;;5097520;28;20028;-85
2021/04/28 04:50:44;;;;;;;10.53;6.80;;;8.60;64.90;;;;;;5115081;28;20032;-86
2021/04/28 04:53:10;;;;;;;11.67;7.00;;;8.60;64.90;;;;;;5097373;28;20032;-85
2021/04/28 04:55:36;;;;;;;12.07;7.00;;;8.60;64.80;;;;;;5097424;28;20399;-86
2021/04/28 04:58:02;;;;;;;16.37;6.73;;;8.50;65.00;;;;;;5115502;28;20023;-85
2021/04/28 05:00:27;;;;;;;15.73;7.27;;;8.60;65.10;;;;;;5096717;28;20030;-86
2021/04/28 05:02:53;;;;;;;13.10;7.00;;;8.70;64.80;;;;;;5097337;28;20028;-86
2021/04/28 05:05:21;;;;;;;11.73;7.07;;;8.80;64.50;;;;;;5096959;28;20053;-86
2021/04/28 05:07:47;;;;;;;12.97;7.33;;;8.80;64.30;;;;;;5097574;28;20495;-86
2021/04/28 05:10:13;;;;;;;14.27;7.80;;;8.80;64.10;;;;;;5097050;28;20036;-86
2021/04/28 05:12:39;;;;;;;15.67;7.00;;;8.80;64.00;;;;;;5115401;28;20087;-85
2021/04/28 05:15:06;;;;;;;13.53;6.97;;;8.80;64.20;;;;;;5120312;28;20150;-84
2021/04/28 05:17:32;;;;;;;11.93;6.97;;;8.80;63.80;;;;;;5121137;28;20012;-83
2021/04/28 05:19:58;;;;;;;13.33;7.57;;;8.80;64.20;;;;;;5138372;28;20101;-82
2021/04/28 05:22:26;;;;;;;17.27;6.90;;;8.90;64.10;;;;;;5129566;28;20103;-85
2021/04/28 05:24:52;;;;;;;16.77;7.20;;;8.80;64.10;;;;;;5096694;28;20561;-86
2021/04/28 05:27:18;;;;;;;12.33;7.60;;;9.00;64.10;;;;;;5115543;28;20499;-85
2021/04/28 05:29:44;;;;;;;12.33;7.63;;;8.90;64.20;;;;;;5116952;28;20038;-86
2021/04/28 05:32:10;;;;;;;14.83;7.23;;;9.00;64.40;;;;;;5115368;28;20035;-86
2021/04/28 05:34:37;;;;;;;15.77;8.10;;;8.90;64.10;;;;;;5115265;28;20102;-86
2021/04/28 05:37:04;;;;;;;15.73;8.53;;;9.10;63.90;;;;;;5115784;28;20046;-85
2021/04/28 05:39:31;;;;;;;15.40;7.83;;;9.10;63.80;;;;;;5096732;28;20024;-85
2021/04/28 05:41:56;;;;;;;17.37;6.87;;;9.20;63.70;;;;;;5107301;28;20024;-86
2021/04/28 05:44:22;;;;;;;18.80;9.30;;;9.20;63.60;;;;;;5115363;28;20038;-86
2021/04/28 05:46:48;;;;;;;16.67;7.80;;;9.30;63.30;;;;;;5117325;28;20034;-85
2021/04/28 05:49:14;;;;;;;15.60;7.80;;;9.40;62.90;;;;;;5117252;28;20031;-86
2021/04/28 05:51:41;;;;;;;16.40;7.67;;;9.50;62.70;;;;;;5118683;28;20076;-85
2021/04/28 05:54:07;;;;;;;14.93;7.93;;;9.50;62.60;;;;;;5117666;28;20030;-85
2021/04/28 05:56:32;;;;;;;15.13;7.60;;;9.50;62.40;;;;;;5114244;28;20115;-86
2021/04/28 05:58:58;;;;;;;19.80;8.13;;;9.60;62.70;;;;;;5098262;28;20053;-86
2021/04/28 06:01:24;;;;;;;16.50;7.87;;;9.60;62.30;;;;;;5098102;28;20030;-86
2021/04/28 06:03:49;;;;;;;13.73;7.47;;;9.70;62.30;;;;;;5097285;28;20050;-86
2021/04/28 06:06:15;;;;;;;18.60;8.37;;;9.70;61.80;;;;;;5114082;28;20510;-86
2021/04/28 06:08:41;;;;;;;14.40;7.77;;;9.80;62.10;;;;;;5114360;28;20103;-86
2021/04/28 06:11:07;;;;;;;14.00;7.33;;;9.90;62.00;;;;;;5095288;28;20028;-85
2021/04/28 06:13:32;;;;;;;13.20;7.40;;;10.00;61.70;;;;;;5096049;28;20496;-86
2021/04/28 06:15:58;;;;;;;19.37;7.57;;;10.10;61.40;;;;;;5095563;28;20019;-86
2021/04/28 06:18:24;;;;;;;15.20;7.30;;;10.10;60.80;;;;;;5095620;28;20053;-86
2021/04/28 06:20:49;;;;;;;14.73;7.63;;;10.20;60.30;;;;;;5094957;28;20097;-86
2021/04/28 06:23:15;;;;;;;15.10;7.43;;;10.20;60.70;;;;;;5095528;28;20019;-86
2021/04/28 06:25:41;;;;;;;11.33;7.30;;;10.30;60.60;;;;;;5094922;28;20442;-86
2021/04/28 06:28:07;;;;;;;13.63;8.10;;;10.40;60.10;;;;;;5113633;28;20484;-86
2021/04/28 06:30:33;;;;;;;14.37;8.07;;;10.40;60.10;;;;;;5094637;28;20023;-86
2021/04/28 06:32:59;;;;;;;16.03;8.70;;;10.50;59.80;;;;;;5095178;28;20030;-86
2021/04/28 06:35:24;;;;;;;15.33;8.13;;;10.60;59.60;;;;;;5095493;28;20027;-86
2021/04/28 06:37:50;;;;;;;10.80;7.20;;;10.60;59.50;;;;;;5095361;28;20049;-85
2021/04/28 06:40:16;;;;;;;18.27;8.53;;;10.70;59.40;;;;;;5094699;28;20016;-86
2021/04/28 06:42:41;;;;;;;13.37;7.77;;;10.80;59.40;;;;;;5095131;28;20356;-87
2021/04/28 06:45:08;;;;;;;14.40;7.80;;;10.80;58.80;;;;;;5095031;28;20065;-86
2021/04/28 06:47:34;;;;;;;15.57;8.57;;;10.90;59.20;;;;;;5094945;28;20030;-86
2021/04/28 06:50:00;;;;;;;14.00;7.83;;;11.00;58.70;;;;;;5094611;28;20454;-86
2021/04/28 06:52:29;;;;;;;12.13;7.33;;;11.00;58.50;;;;;;5094896;28;20372;-86
2021/04/28 06:54:54;;;;;;;13.60;7.78;;;11.10;58.90;;;;;;5094974;28;20107;-85
2021/04/28 06:57:20;;;;;;;14.10;8.17;;;11.20;58.80;;;;;;5094818;28;20144;-86
2021/04/28 06:59:46;;;;;;;15.33;7.87;;;11.30;58.40;;;;;;5094351;28;20020;-86
2021/04/28 07:02:12;;;;;;;13.97;7.50;;;11.30;57.90;;;;;;5113136;28;20020;-86
2021/04/28 07:04:37;;;;;;;15.83;8.50;;;11.40;58.00;;;;;;5094668;28;20024;-86
2021/04/28 07:07:03;;;;;;;15.17;8.30;;;11.40;57.80;;;;;;5094503;28;20384;-86
2021/04/28 07:09:29;;;;;;;15.73;7.70;;;11.50;57.60;;;;;;5094208;28;20020;-85
2021/04/28 07:11:57;;;;;;;13.90;7.80;;;11.50;57.50;;;;;;5094531;28;20034;-86
2021/04/28 07:14:23;;;;;;;11.10;7.40;;;11.60;57.40;;;;;;5094435;28;20024;-86
2021/04/28 07:16:48;;;;;;;12.50;7.37;;;11.60;57.30;;;;;;5094521;28;20027;-86
2021/04/28 07:19:14;;;;;;;12.13;7.30;;;11.70;57.40;;;;;;5094346;28;20394;-86
2021/04/28 07:21:40;;;;;;;12.83;7.00;;;11.80;56.90;;;;;;5112492;28;20020;-85
2021/04/28 07:24:06;;;;;;;11.93;7.50;;;11.80;57.60;;;;;;5094345;28;20020;-86
2021/04/28 07:26:32;;;;;;;12.97;7.07;;;11.90;56.90;;;;;;5112631;28;20491;-86
2021/04/28 07:28:59;;;;;;;10.43;6.83;;;11.90;56.10;;;;;;5093665;28;20499;-86
2021/04/28 07:31:26;;;;;;;13.93;7.73;;;11.90;55.80;;;;;;5112510;28;20024;-86
2021/04/28 07:33:52;;;;;;;12.77;7.40;;;12.00;55.70;;;;;;5112423;28;20092;-86
2021/04/28 07:36:17;;;;;;;14.60;7.57;;;12.00;55.80;;;;;;5093915;28;20048;-84
2021/04/28 07:38:43;;;;;;;11.07;6.70;;;12.00;55.70;;;;;;5112878;28;20502;-86
2021/04/28 07:41:09;;;;;;;11.13;7.10;;;12.10;55.70;;;;;;5093691;28;20096;-87
2021/04/28 07:43:35;;;;;;;10.63;6.47;;;12.10;55.30;;;;;;5094964;28;20380;-84
2021/04/28 07:46:00;;;;;;;13.53;7.07;;;12.10;55.10;;;;;;5115830;28;20024;-84
2021/04/28 07:48:26;;;;;;;11.90;6.10;;;12.20;54.90;;;;;;5097541;28;20019;-85
2021/04/28 07:50:52;;;;;;;10.23;6.20;;;12.20;54.90;;;;;;5096467;28;20091;-85
2021/04/28 07:53:18;;;;;;;11.37;6.50;;;12.20;54.70;;;;;;5097393;28;20123;-85
2021/04/28 07:55:47;;;;;;;11.43;6.80;;;12.20;54.60;;;;;;5115472;28;20023;-84
2021/04/28 07:58:17;;;;;;;10.82;6.80;;;12.20;54.30;;;;;;5116381;28;20096;-85
2021/04/28 08:00:44;;;;;;;15.07;7.83;;;12.20;53.40;;;;;;5097353;28;20027;-84
2021/04/28 08:03:09;;;;;;;12.27;7.57;;;12.30;53.10;;;;;;5116125;28;20019;-84
2021/04/28 08:05:35;;;;;;;11.17;6.63;;;12.30;53.40;;;;;;5098145;28;20023;-84
2021/04/28 08:08:01;;;;;;;13.40;7.40;;;12.30;54.10;;;;;;5097289;28;20027;-85
2021/04/28 08:10:27;;;;;;;12.17;7.60;;;12.30;53.90;;;;;;5094997;28;20031;-84
2021/04/28 08:12:53;;;;;;;12.13;7.10;;;12.30;52.80;;;;;;5095241;28;20108;-84
2021/04/28 08:15:18;;;;;;;12.37;7.93;;;12.30;53.10;;;;;;5095041;28;20065;-85
2021/04/28 08:17:44;;;;;;;11.43;6.17;;;12.40;53.20;;;;;;5094800;28;20020;-84
2021/04/28 08:20:11;;;;;;;11.90;6.73;;;12.40;53.20;;;;;;5094432;28;20023;-84
2021/04/28 08:22:38;;;;;;;10.63;6.30;;;12.40;53.20;;;;;;5095550;28;20016;-84
2021/04/28 08:25:05;;;;;;;11.23;7.10;;;12.40;53.10;;;;;;5113613;28;20026;-84
2021/04/28 08:27:31;;;;;;;9.40;6.67;;;12.50;52.80;;;;;;5113136;28;20076;-84
2021/04/28 08:29:57;;;;;;;12.30;7.13;;;12.50;53.30;;;;;;5112792;28;20019;-84
2021/04/28 08:32:23;;;;;;;9.53;6.83;;;12.60;52.80;;;;;;5094802;28;20030;-84
2021/04/28 08:34:49;;;;;;;10.17;6.60;;;12.50;52.80;;;;;;5094738;28;20027;-84
2021/04/28 08:37:14;;;;;;;10.17;6.97;;;12.60;52.30;;;;;;5094831;28;20015;-84
2021/04/28 08:39:40;;;;;;;12.10;6.80;;;12.60;52.30;;;;;;5093796;28;20077;-84
2021/04/28 08:42:06;;;;;;;11.60;7.20;;;12.70;52.20;;;;;;5112973;28;20031;-84
2021/04/28 08:44:34;;;;;;;11.53;7.30;;;12.70;52.00;;;;;;5094506;28;20417;-84
2021/04/28 08:47:00;;;;;;;10.83;7.43;;;12.70;52.20;;;;;;5094422;28;20092;-84
2021/04/28 08:49:26;;;;;;;10.77;7.67;;;12.80;52.40;;;;;;5095385;28;20024;-84
2021/04/28 08:51:52;;;;;;;12.23;7.63;;;12.90;51.90;;;;;;5098106;28;20020;-85
2021/04/28 08:54:18;;;;;;;15.10;8.43;;;12.90;52.30;;;;;;5115618;28;20062;-84
2021/04/28 08:56:52;;;;;;;19.27;7.73;;;13.00;51.80;;;;;;5097328;28;20051;-84
2021/04/28 08:59:19;;;;;;;18.53;8.43;;;13.10;51.90;;;;;;5114985;28;20016;-84
2021/04/28 09:01:47;;;;;;;12.67;8.57;;;13.10;51.80;;;;;;5097275;28;20024;-84
2021/04/28 09:04:18;;;;;;;15.67;8.73;;;13.10;51.60;;;;;;5115618;28;20020;-84
2021/04/28 09:06:45;;;;;;;13.73;7.90;;;13.20;51.90;;;;;;5098546;28;20111;-85
2021/04/28 09:09:18;;;;;;;11.53;7.60;;;13.20;52.10;;;;;;5098536;28;20031;-84
2021/04/28 09:11:50;;;;;;;13.87;7.70;;;13.30;52.00;;;;;;5099325;28;20031;-84
2021/04/28 09:14:18;;;;;;;13.47;8.50;;;13.30;52.30;;;;;;5116503;28;20047;-85
2021/04/28 09:17:07;;;;;;;12.88;8.20;;;13.30;51.80;;;;;;5099602;28;20027;-84
2021/04/28 09:19:44;;;;;;;12.80;8.23;;;13.40;51.40;;;;;;5098507;28;20481;-84
2021/04/28 09:22:13;;;;;;;13.57;8.37;;;13.30;51.80;;;;;;5098713;28;20020;-84
2021/04/28 09:24:53;;;;;;;13.67;8.17;;;13.40;51.00;;;;;;5117368;28;20106;-84
2021/04/28 09:27:34;;;;;;;14.87;8.00;;;13.40;50.90;;;;;;5099436;28;20028;-84
2021/04/28 09:30:20;;;;;;;12.87;7.80;;;13.40;50.90;;;;;;5117180;28;20020;-86
2021/04/28 09:32:46;;;;;;;13.33;7.37;;;13.50;50.40;;;;;;5099326;28;20028;-84
2021/04/28 09:35:20;;;;;;;12.40;7.80;;;13.50;49.90;;;;;;5117341;28;20472;-85
2021/04/28 09:37:57;;;;;;;12.63;8.07;;;13.60;49.80;;;;;;5098875;28;20099;-84
2021/04/28 09:40:45;;;;;;;12.80;7.80;;;13.70;49.20;;;;;;5117127;28;20007;-84
2021/04/28 09:43:11;;;;;;;11.65;7.78;;;13.80;49.80;;;;;;5098835;28;20047;-86
2021/04/28 09:45:50;;;;;;;14.93;7.60;;;13.70;49.50;;;;;;5099477;28;20077;-84
2021/04/28 09:48:20;;;;;;;;;;;13.70;49.10;;;;;;5099389;28;20023;-85
2021/04/28 09:50:47;;;;;;;14.73;8.23;;;13.80;48.50;;;;;;5098192;28;19946;-84
2021/04/28 09:53:23;;;;;;;14.10;8.05;;;13.90;48.60;;;;;;5098492;28;20576;-86
2021/04/28 09:55:49;;;;;;;14.25;7.88;;;13.90;48.70;;;;;;5098642;28;20024;-85
2021/04/28 09:58:14;;;;;;;11.98;7.22;;;13.90;48.00;;;;;;5098852;28;20024;-86
2021/04/28 10:00:40;;;;;;;13.18;7.63;;;14.00;48.00;;;;;;5116178;28;20027;-84
2021/04/28 10:03:08;;;;;;;12.98;7.63;;;14.10;47.00;;;;;;5097859;28;20021;-84
2021/04/28 10:05:41;;;;;;;14.05;7.40;;;14.10;46.90;;;;;;5117005;28;20015;-84
2021/04/28 10:08:19;;;;;;;11.57;7.05;;;14.20;47.00;;;;;;5115526;28;20035;-84
2021/04/28 10:10:46;;;;;;;14.63;7.87;;;14.20;46.90;;;;;;5097749;28;20032;-84
2021/04/28 10:13:13;;;;;;;13.93;7.18;;;14.30;46.10;;;;;;5117051;28;20050;-84
2021/04/28 10:15:39;;;;;;;10.65;7.30;;;14.30;46.00;;;;;;5098912;28;20416;-84
2021/04/28 10:18:07;;;;;;;13.50;7.88;;;14.30;45.90;;;;;;5116820;28;20023;-85
2021/04/28 10:20:34;;;;;;;10.05;6.68;;;14.60;45.40;;;;;;5098255;28;20020;-84
2021/04/28 10:23:08;;;;;;;12.70;7.50;;;14.50;45.30;;;;;;5098610;28;20055;-84
2021/04/28 10:25:35;;;;;;;12.25;7.32;;;14.50;45.40;;;;;;5098551;28;20023;-84
2021/04/28 10:28:03;;;;;;;12.02;6.93;;;14.40;45.30;;;;;;5098644;28;20070;-86
2021/04/28 10:30:29;;;;;;;10.52;6.88;;;14.50;45.20;;;;;;5116105;28;20054;-84
2021/04/28 10:32:56;;;;;;;11.80;7.53;;;14.50;45.70;;;;;;5099125;28;20035;-84
2021/04/28 10:35:26;;;;;;;14.32;7.60;;;14.50;45.70;;;;;;5098666;28;20023;-84
2021/04/28 10:37:52;;;;;;;13.18;7.75;;;14.50;45.80;;;;;;5098586;28;20054;-86
2021/04/28 10:40:23;;;;;;;11.02;7.05;;;14.50;46.30;;;;;;5097755;28;20041;-85
2021/04/28 10:42:49;;;;;;;11.52;7.32;;;14.50;46.20;;;;;;5097844;28;20027;-84
2021/04/28 10:45:24;;;;;;;11.70;7.57;;;14.50;46.60;;;;;;5097943;28;20061;-84
2021/04/28 10:47:51;;;;;;;11.25;7.55;;;14.50;47.00;;;;;;5098276;28;20020;-86
2021/04/28 10:50:24;;;;;;;13.07;7.72;;;14.50;47.20;;;;;;5097724;28;20027;-85
2021/04/28 10:53:06;;;;;;;11.07;7.72;;;14.70;46.40;;;;;;5097914;28;20028;-85
2021/04/28 10:56:04;;;;;;;10.60;7.20;;;14.70;46.70;;;;;;5097899;28;20027;-85
2021/04/28 10:58:30;;;;;;;10.83;7.67;;;14.70;46.40;;;;;;5116371;28;20046;-84
2021/04/28 11:01:04;;;;;;;11.65;7.70;;;14.80;45.90;;;;;;5097022;28;20249;-85
2021/04/28 11:03:36;;;;;;;10.60;7.30;;;15.00;45.80;;;;;;5097931;28;20024;-85
2021/04/28 11:06:16;;;;;;;12.98;7.45;;;15.00;45.80;;;;;;5098082;28;20027;-85
2021/04/28 11:09:00;;;;;;;11.13;7.28;;;15.00;46.00;;;;;;5116564;28;20407;-84
2021/04/28 11:16:59;;;;;;;12.57;7.28;;;15.10;45.20;;;;;;5116659;28;20118;-87
2021/04/28 11:19:31;;;;;;;11.50;7.05;;;15.10;45.50;;;;;;5097718;28;20443;-85
2021/04/28 11:22:17;;;;;;;10.13;7.30;;;15.10;45.50;;;;;;5098123;28;20026;-86
2021/04/28 11:25:15;;;;;;;10.45;6.88;;;15.10;45.30;;;;;;5099420;28;20499;-85
2021/04/28 11:27:41;;;;;;;12.38;8.32;;;15.10;45.80;;;;;;5098757;28;20023;-86
2021/04/28 11:30:35;;;;;;;16.60;7.47;;;15.20;44.40;;;;;;5098482;28;20024;-86
2021/04/28 11:33:10;;;;;;;8.75;6.57;;;15.30;44.10;;;;;;5078408;28;20028;-86
2021/04/28 11:35:37;;;;;;;11.15;6.68;;;15.30;43.40;;;;;;5095459;28;20043;-85
2021/04/28 11:38:09;;;;;;;11.70;6.88;;;15.40;43.30;;;;;;5095651;28;20178;-85
2021/04/28 11:41:03;;;;;;;9.30;6.80;;;15.40;43.10;;;;;;5113467;28;20020;-85
2021/04/28 11:43:51;;;;;;;11.23;6.65;;;15.40;43.50;;;;;;5095423;28;20047;-85
2021/04/28 11:46:22;;;;;;;12.18;6.70;;;15.40;43.70;;;;;;5114201;28;20039;-86
2021/04/28 11:48:50;;;;;;;11.65;6.90;;;15.60;43.50;;;;;;5095635;28;20036;-84
2021/04/28 11:51:18;;;;;;;12.27;6.72;;;15.60;43.00;;;;;;5095892;28;20024;-85
2021/04/28 11:53:52;;;;;;;10.77;6.88;;;15.80;42.70;;;;;;5096468;28;20349;-85
2021/04/28 11:56:39;;;;;;;8.88;5.88;;;15.80;42.80;;;;;;5113099;28;20572;-85
2021/04/28 11:59:06;;;;;;;12.85;7.68;;;15.70;42.90;;;;;;5095248;28;20023;-85
2021/04/28 12:01:35;;;;;;;10.77;7.20;;;15.90;42.10;;;;;;5095677;28;20023;-85
2021/04/28 12:04:07;;;;;;;13.93;7.00;;;15.90;42.40;;;;;;5095755;28;20044;-85
2021/04/28 12:06:34;;;;;;;9.43;6.30;;;15.90;42.90;;;;;;5113339;28;20035;-85
2021/04/28 12:09:02;;;;;;;12.43;6.95;;;15.90;43.30;;;;;;5094188;28;20027;-84
2021/04/28 12:11:28;;;;;;;9.25;6.30;;;15.90;42.20;;;;;;5112233;28;20023;-85
2021/04/28 12:13:55;;;;;;;8.70;6.00;;;15.90;41.90;;;;;;5094139;28;20031;-85
2021/04/28 12:16:20;;;;;;;8.13;5.88;;;15.90;41.50;;;;;;5094384;28;20026;-85
2021/04/28 12:18:47;;;;;;;9.02;6.38;;;15.80;42.10;;;;;;5112559;28;20032;-85
2021/04/28 12:21:12;;;;;;;11.48;5.97;;;16.00;41.30;;;;;;5094205;28;20051;-85
2021/04/28 12:23:39;;;;;;;7.47;4.85;;;15.90;41.60;;;;;;5113830;28;20047;-85
2021/04/28 12:26:08;;;;;;;8.00;4.65;;;15.80;41.00;;;;;;5098565;28;20106;-85
2021/04/28 12:28:51;;;;;;;10.57;5.60;;;15.90;40.40;;;;;;5116600;28;20089;-85
2021/04/28 12:31:16;;;;;;;7.00;5.10;;;16.00;41.10;;;;;;5116106;28;20031;-85
2021/04/28 12:33:42;;;;;;;6.97;5.03;;;16.00;41.50;;;;;;5098111;28;20019;-85
2021/04/28 12:36:09;;;;;;;7.55;5.47;;;16.00;41.70;;;;;;5116122;28;20023;-86
2021/04/28 12:38:40;;;;;;;7.47;5.50;;;16.10;41.30;;;;;;5098400;28;20389;-86
2021/04/28 12:41:07;;;;;;;10.40;6.10;;;16.00;41.20;;;;;;5097255;28;20118;-85
2021/04/28 12:43:36;;;;;;;6.97;4.90;;;16.10;40.00;;;;;;5115929;28;20549;-85
2021/04/28 12:46:07;;;;;;;8.43;5.07;;;16.10;40.00;;;;;;5097821;28;20051;-85
2021/04/28 12:49:01;;;;;;;8.65;4.65;;;16.10;41.20;;;;;;5097743;28;20508;-86
2021/04/28 12:51:28;;;;;;;7.28;3.95;;;16.10;39.30;;;;;;5097705;28;20027;-85
2021/04/28 12:53:54;;;;;;;6.85;3.80;;;16.20;39.00;;;;;;5097665;28;20027;-86